sensor_id;sensor_type;location;lat;lon;timestamp;temperature;humidity
67502;SHT30;54349;52.528;19.760;2023-05-07T00:00:27;23.01;42.38
67502;SHT30;54349;52.528;19.760;2023-05-07T00:03:15;22.98;42.24
67502;SHT30;54349;52.528;19.760;2023-05-07T00:05:44;22.95;42.15
67502;SHT30;54349;52.528;19.760;2023-05-07T00:08:12;22.93;42.05
67502;SHT30;54349;52.528;19.760;2023-05-07T00:10:41;22.91;41.93
67502;SHT30;54349;52.528;19.760;2023-05-07T00:13:09;22.89;41.84
67502;SHT30;54349;52.528;19.760;2023-05-07T00:15:39;22.87;41.78
67502;SHT30;54349;52.528;19.760;2023-05-07T00:18:07;22.84;41.69
67502;SHT30;54349;52.528;19.760;2023-05-07T00:20:36;22.83;41.59
67502;SHT30;54349;52.528;19.760;2023-05-07T00:23:04;22.80;41.51
67502;SHT30;54349;52.528;19.760;2023-05-07T00:25:32;22.78;41.48
67502;SHT30;54349;52.528;19.760;2023-05-07T00:28:01;22.76;41.38
67502;SHT30;54349;52.528;19.760;2023-05-07T00:30:31;22.74;41.34
67502;SHT30;54349;52.528;19.760;2023-05-07T00:33:00;22.71;41.27
67502;SHT30;54349;52.528;19.760;2023-05-07T00:35:29;22.70;41.20
67502;SHT30;54349;52.528;19.760;2023-05-07T00:37:58;22.68;41.17
67502;SHT30;54349;52.528;19.760;2023-05-07T00:40:26;22.65;41.11
67502;SHT30;54349;52.528;19.760;2023-05-07T00:42:54;22.64;41.08
67502;SHT30;54349;52.528;19.760;2023-05-07T00:45:27;22.61;41.04
67502;SHT30;54349;52.528;19.760;2023-05-07T00:47:57;22.59;41.00
67502;SHT30;54349;52.528;19.760;2023-05-07T00:50:29;22.57;40.93
67502;SHT30;54349;52.528;19.760;2023-05-07T00:52:59;22.55;40.91
67502;SHT30;54349;52.528;19.760;2023-05-07T00:55:28;22.53;40.86
67502;SHT30;54349;52.528;19.760;2023-05-07T00:57:57;22.51;40.82
67502;SHT30;54349;52.528;19.760;2023-05-07T01:00:25;22.49;40.78
67502;SHT30;54349;52.528;19.760;2023-05-07T01:02:53;22.47;40.74
67502;SHT30;54349;52.528;19.760;2023-05-07T01:05:23;22.45;40.71
67502;SHT30;54349;52.528;19.760;2023-05-07T01:07:54;22.44;40.69
67502;SHT30;54349;52.528;19.760;2023-05-07T01:10:24;22.42;40.66
67502;SHT30;54349;52.528;19.760;2023-05-07T01:12:54;22.39;40.64
67502;SHT30;54349;52.528;19.760;2023-05-07T01:15:23;22.38;40.60
67502;SHT30;54349;52.528;19.760;2023-05-07T01:17:51;22.36;40.59
67502;SHT30;54349;52.528;19.760;2023-05-07T01:20:25;22.35;40.59
67502;SHT30;54349;52.528;19.760;2023-05-07T01:22:56;22.33;40.55
67502;SHT30;54349;52.528;19.760;2023-05-07T01:25:25;22.31;40.54
67502;SHT30;54349;52.528;19.760;2023-05-07T01:27:56;22.30;40.50
67502;SHT30;54349;52.528;19.760;2023-05-07T01:30:29;22.28;40.50
67502;SHT30;54349;52.528;19.760;2023-05-07T01:33:01;22.26;40.47
67502;SHT30;54349;52.528;19.760;2023-05-07T01:35:40;22.23;40.42
67502;SHT30;54349;52.528;19.760;2023-05-07T01:38:15;22.21;40.41
67502;SHT30;54349;52.528;19.760;2023-05-07T01:40:44;22.20;40.40
67502;SHT30;54349;52.528;19.760;2023-05-07T01:43:14;22.19;40.40
67502;SHT30;54349;52.528;19.760;2023-05-07T01:45:43;22.17;40.38
67502;SHT30;54349;52.528;19.760;2023-05-07T01:48:14;22.16;40.34
67502;SHT30;54349;52.528;19.760;2023-05-07T01:50:43;22.15;40.32
67502;SHT30;54349;52.528;19.760;2023-05-07T01:53:13;22.14;40.30
67502;SHT30;54349;52.528;19.760;2023-05-07T01:55:43;22.12;40.29
67502;SHT30;54349;52.528;19.760;2023-05-07T01:58:12;22.11;40.30
67502;SHT30;54349;52.528;19.760;2023-05-07T02:00:41;22.10;40.29
67502;SHT30;54349;52.528;19.760;2023-05-07T02:03:09;22.08;40.26
67502;SHT30;54349;52.528;19.760;2023-05-07T02:05:42;22.07;40.21
67502;SHT30;54349;52.528;19.760;2023-05-07T02:08:31;22.05;40.22
67502;SHT30;54349;52.528;19.760;2023-05-07T02:11:00;22.04;40.22
67502;SHT30;54349;52.528;19.760;2023-05-07T02:13:29;22.02;40.21
67502;SHT30;54349;52.528;19.760;2023-05-07T02:16:02;22.02;40.20
67502;SHT30;54349;52.528;19.760;2023-05-07T02:18:31;22.01;40.19
67502;SHT30;54349;52.528;19.760;2023-05-07T02:21:00;21.99;40.15
67502;SHT30;54349;52.528;19.760;2023-05-07T02:23:28;21.99;40.12
67502;SHT30;54349;52.528;19.760;2023-05-07T02:25:57;21.97;40.12
67502;SHT30;54349;52.528;19.760;2023-05-07T02:28:26;21.95;40.11
67502;SHT30;54349;52.528;19.760;2023-05-07T02:30:58;21.94;40.11
67502;SHT30;54349;52.528;19.760;2023-05-07T02:33:29;21.93;40.12
67502;SHT30;54349;52.528;19.760;2023-05-07T02:36:05;21.91;40.10
67502;SHT30;54349;52.528;19.760;2023-05-07T02:39:05;21.90;40.10
67502;SHT30;54349;52.528;19.760;2023-05-07T02:41:33;21.89;40.07
67502;SHT30;54349;52.528;19.760;2023-05-07T02:44:04;21.89;40.08
67502;SHT30;54349;52.528;19.760;2023-05-07T02:46:34;21.87;40.01
67502;SHT30;54349;52.528;19.760;2023-05-07T02:49:06;21.87;40.01
67502;SHT30;54349;52.528;19.760;2023-05-07T02:51:35;21.85;40.01
67502;SHT30;54349;52.528;19.760;2023-05-07T02:54:05;21.84;40.00
67502;SHT30;54349;52.528;19.760;2023-05-07T02:56:34;21.83;40.02
67502;SHT30;54349;52.528;19.760;2023-05-07T02:59:03;21.82;40.02
67502;SHT30;54349;52.528;19.760;2023-05-07T03:01:34;21.81;40.05
67502;SHT30;54349;52.528;19.760;2023-05-07T03:04:05;21.80;40.02
67502;SHT30;54349;52.528;19.760;2023-05-07T03:06:34;21.79;40.00
67502;SHT30;54349;52.528;19.760;2023-05-07T03:09:02;21.78;39.97
67502;SHT30;54349;52.528;19.760;2023-05-07T03:11:30;21.77;39.95
67502;SHT30;54349;52.528;19.760;2023-05-07T03:13:59;21.76;39.91
67502;SHT30;54349;52.528;19.760;2023-05-07T03:16:28;21.76;39.92
67502;SHT30;54349;52.528;19.760;2023-05-07T03:18:57;21.75;39.89
67502;SHT30;54349;52.528;19.760;2023-05-07T03:21:26;21.74;39.89
67502;SHT30;54349;52.528;19.760;2023-05-07T03:23:56;21.73;39.86
67502;SHT30;54349;52.528;19.760;2023-05-07T03:26:25;21.72;39.83
67502;SHT30;54349;52.528;19.760;2023-05-07T03:28:54;21.71;39.81
67502;SHT30;54349;52.528;19.760;2023-05-07T03:31:23;21.70;39.79
67502;SHT30;54349;52.528;19.760;2023-05-07T03:33:53;21.68;39.79
67502;SHT30;54349;52.528;19.760;2023-05-07T03:36:24;21.67;39.75
67502;SHT30;54349;52.528;19.760;2023-05-07T03:38:56;21.68;39.72
67502;SHT30;54349;52.528;19.760;2023-05-07T03:41:26;21.67;39.73
67502;SHT30;54349;52.528;19.760;2023-05-07T03:43:54;21.67;39.70
67502;SHT30;54349;52.528;19.760;2023-05-07T03:46:23;21.65;39.70
67502;SHT30;54349;52.528;19.760;2023-05-07T03:48:54;21.65;39.69
67502;SHT30;54349;52.528;19.760;2023-05-07T03:51:23;21.64;39.68
67502;SHT30;54349;52.528;19.760;2023-05-07T03:53:52;21.63;39.63
67502;SHT30;54349;52.528;19.760;2023-05-07T03:56:21;21.63;39.62
67502;SHT30;54349;52.528;19.760;2023-05-07T03:58:55;21.62;39.60
67502;SHT30;54349;52.528;19.760;2023-05-07T04:01:24;21.62;39.61
67502;SHT30;54349;52.528;19.760;2023-05-07T04:03:52;21.61;39.61
67502;SHT30;54349;52.528;19.760;2023-05-07T04:06:21;21.60;39.59
67502;SHT30;54349;52.528;19.760;2023-05-07T04:08:50;21.60;39.58
67502;SHT30;54349;52.528;19.760;2023-05-07T04:11:18;21.59;39.57
67502;SHT30;54349;52.528;19.760;2023-05-07T04:13:47;21.58;39.55
67502;SHT30;54349;52.528;19.760;2023-05-07T04:16:16;21.58;39.56
67502;SHT30;54349;52.528;19.760;2023-05-07T04:18:45;21.58;39.52
67502;SHT30;54349;52.528;19.760;2023-05-07T04:21:17;21.57;39.51
67502;SHT30;54349;52.528;19.760;2023-05-07T04:23:48;21.57;39.50
67502;SHT30;54349;52.528;19.760;2023-05-07T04:26:18;21.57;39.50
67502;SHT30;54349;52.528;19.760;2023-05-07T04:28:47;21.56;39.50
67502;SHT30;54349;52.528;19.760;2023-05-07T04:31:15;21.56;39.48
67502;SHT30;54349;52.528;19.760;2023-05-07T04:33:46;21.54;39.47
67502;SHT30;54349;52.528;19.760;2023-05-07T04:36:16;21.54;39.50
67502;SHT30;54349;52.528;19.760;2023-05-07T04:38:49;21.53;39.49
67502;SHT30;54349;52.528;19.760;2023-05-07T04:41:19;21.53;39.50
67502;SHT30;54349;52.528;19.760;2023-05-07T04:43:48;21.53;39.47
67502;SHT30;54349;52.528;19.760;2023-05-07T04:46:17;21.52;39.50
67502;SHT30;54349;52.528;19.760;2023-05-07T04:48:48;21.52;39.50
67502;SHT30;54349;52.528;19.760;2023-05-07T04:51:16;21.52;39.46
67502;SHT30;54349;52.528;19.760;2023-05-07T04:53:44;21.51;39.46
67502;SHT30;54349;52.528;19.760;2023-05-07T04:56:13;21.51;39.48
67502;SHT30;54349;52.528;19.760;2023-05-07T04:58:43;21.50;39.47
67502;SHT30;54349;52.528;19.760;2023-05-07T05:01:11;21.50;39.48
67502;SHT30;54349;52.528;19.760;2023-05-07T05:03:41;21.50;39.47
67502;SHT30;54349;52.528;19.760;2023-05-07T05:06:09;21.50;39.43
67502;SHT30;54349;52.528;19.760;2023-05-07T05:08:38;21.49;39.48
67502;SHT30;54349;52.528;19.760;2023-05-07T05:11:09;21.49;39.46
67502;SHT30;54349;52.528;19.760;2023-05-07T05:13:38;21.49;39.46
67502;SHT30;54349;52.528;19.760;2023-05-07T05:16:14;21.49;39.47
67502;SHT30;54349;52.528;19.760;2023-05-07T05:18:44;21.49;39.46
67502;SHT30;54349;52.528;19.760;2023-05-07T05:21:13;21.49;39.42
67502;SHT30;54349;52.528;19.760;2023-05-07T05:23:43;21.49;39.40
67502;SHT30;54349;52.528;19.760;2023-05-07T05:26:12;21.49;39.41
67502;SHT30;54349;52.528;19.760;2023-05-07T05:28:42;21.50;39.41
67502;SHT30;54349;52.528;19.760;2023-05-07T05:31:12;21.49;39.43
67502;SHT30;54349;52.528;19.760;2023-05-07T05:33:42;21.49;39.40
67502;SHT30;54349;52.528;19.760;2023-05-07T05:36:12;21.49;39.42
67502;SHT30;54349;52.528;19.760;2023-05-07T05:38:41;21.49;39.50
67502;SHT30;54349;52.528;19.760;2023-05-07T05:41:10;21.49;39.58
67502;SHT30;54349;52.528;19.760;2023-05-07T05:43:40;21.48;39.64
67502;SHT30;54349;52.528;19.760;2023-05-07T05:46:11;21.49;39.68
67502;SHT30;54349;52.528;19.760;2023-05-07T05:48:41;21.50;39.69
67502;SHT30;54349;52.528;19.760;2023-05-07T05:51:11;21.50;39.70
67502;SHT30;54349;52.528;19.760;2023-05-07T05:53:39;21.50;39.64
67502;SHT30;54349;52.528;19.760;2023-05-07T05:56:08;21.50;39.62
67502;SHT30;54349;52.528;19.760;2023-05-07T05:58:38;21.50;39.60
67502;SHT30;54349;52.528;19.760;2023-05-07T06:01:09;21.50;39.56
67502;SHT30;54349;52.528;19.760;2023-05-07T06:03:40;21.50;39.57
67502;SHT30;54349;52.528;19.760;2023-05-07T06:06:13;21.51;39.57
67502;SHT30;54349;52.528;19.760;2023-05-07T06:08:43;21.51;39.53
67502;SHT30;54349;52.528;19.760;2023-05-07T06:11:13;21.52;39.51
67502;SHT30;54349;52.528;19.760;2023-05-07T06:13:45;21.51;39.50
67502;SHT30;54349;52.528;19.760;2023-05-07T06:16:14;21.52;39.52
67502;SHT30;54349;52.528;19.760;2023-05-07T06:18:43;21.52;39.51
67502;SHT30;54349;52.528;19.760;2023-05-07T06:21:15;21.53;39.50
67502;SHT30;54349;52.528;19.760;2023-05-07T06:23:44;21.52;39.48
67502;SHT30;54349;52.528;19.760;2023-05-07T06:26:14;21.54;39.45
67502;SHT30;54349;52.528;19.760;2023-05-07T06:28:46;21.53;39.43
67502;SHT30;54349;52.528;19.760;2023-05-07T06:31:17;21.54;39.40
67502;SHT30;54349;52.528;19.760;2023-05-07T06:34:09;21.55;39.42
67502;SHT30;54349;52.528;19.760;2023-05-07T06:36:43;21.55;39.40
67502;SHT30;54349;52.528;19.760;2023-05-07T06:39:26;21.56;39.40
67502;SHT30;54349;52.528;19.760;2023-05-07T06:41:56;21.56;39.39
67502;SHT30;54349;52.528;19.760;2023-05-07T06:44:31;21.57;39.38
67502;SHT30;54349;52.528;19.760;2023-05-07T06:47:12;21.58;39.36
67502;SHT30;54349;52.528;19.760;2023-05-07T06:49:46;21.57;39.36
67502;SHT30;54349;52.528;19.760;2023-05-07T06:52:18;21.59;39.33
67502;SHT30;54349;52.528;19.760;2023-05-07T06:54:49;21.59;39.31
67502;SHT30;54349;52.528;19.760;2023-05-07T06:57:21;21.60;39.32
67502;SHT30;54349;52.528;19.760;2023-05-07T06:59:52;21.61;39.34
67502;SHT30;54349;52.528;19.760;2023-05-07T07:02:21;21.62;39.32
67502;SHT30;54349;52.528;19.760;2023-05-07T07:04:50;21.62;39.29
67502;SHT30;54349;52.528;19.760;2023-05-07T07:07:19;21.63;39.27
67502;SHT30;54349;52.528;19.760;2023-05-07T07:09:49;21.64;39.27
67502;SHT30;54349;52.528;19.760;2023-05-07T07:12:21;21.64;39.27
67502;SHT30;54349;52.528;19.760;2023-05-07T07:14:52;21.63;39.31
67502;SHT30;54349;52.528;19.760;2023-05-07T07:17:23;21.63;39.31
67502;SHT30;54349;52.528;19.760;2023-05-07T07:19:55;21.64;39.31
67502;SHT30;54349;52.528;19.760;2023-05-07T07:22:24;21.63;39.31
67502;SHT30;54349;52.528;19.760;2023-05-07T07:24:53;21.64;39.29
67502;SHT30;54349;52.528;19.760;2023-05-07T07:27:23;21.64;39.29
67502;SHT30;54349;52.528;19.760;2023-05-07T07:29:56;21.64;39.27
67502;SHT30;54349;52.528;19.760;2023-05-07T07:32:32;21.64;39.30
67502;SHT30;54349;52.528;19.760;2023-05-07T07:35:04;21.64;39.26
67502;SHT30;54349;52.528;19.760;2023-05-07T07:37:34;21.65;39.29
67502;SHT30;54349;52.528;19.760;2023-05-07T07:40:04;21.65;39.28
67502;SHT30;54349;52.528;19.760;2023-05-07T07:42:34;21.67;39.29
67502;SHT30;54349;52.528;19.760;2023-05-07T07:45:04;21.67;39.26
67502;SHT30;54349;52.528;19.760;2023-05-07T07:47:36;21.67;39.22
67502;SHT30;54349;52.528;19.760;2023-05-07T07:50:06;21.68;39.24
67502;SHT30;54349;52.528;19.760;2023-05-07T07:52:37;21.68;39.27
67502;SHT30;54349;52.528;19.760;2023-05-07T07:55:06;21.69;39.27
67502;SHT30;54349;52.528;19.760;2023-05-07T07:57:35;21.69;39.28
67502;SHT30;54349;52.528;19.760;2023-05-07T08:00:05;21.70;39.26
67502;SHT30;54349;52.528;19.760;2023-05-07T08:02:44;21.70;39.27
67502;SHT30;54349;52.528;19.760;2023-05-07T08:05:17;21.71;39.26
67502;SHT30;54349;52.528;19.760;2023-05-07T08:07:47;21.72;39.19
67502;SHT30;54349;52.528;19.760;2023-05-07T08:10:23;21.73;39.12
67502;SHT30;54349;52.528;19.760;2023-05-07T08:12:56;21.72;39.08
67502;SHT30;54349;52.528;19.760;2023-05-07T08:15:24;21.73;39.09
67502;SHT30;54349;52.528;19.760;2023-05-07T08:17:53;21.73;39.06
67502;SHT30;54349;52.528;19.760;2023-05-07T08:20:22;21.73;39.01
67502;SHT30;54349;52.528;19.760;2023-05-07T08:22:52;21.74;38.93
67502;SHT30;54349;52.528;19.760;2023-05-07T08:25:20;21.76;38.98
67502;SHT30;54349;52.528;19.760;2023-05-07T08:27:49;21.75;38.90
67502;SHT30;54349;52.528;19.760;2023-05-07T08:30:17;21.76;38.81
67502;SHT30;54349;52.528;19.760;2023-05-07T08:32:49;21.76;38.80
67502;SHT30;54349;52.528;19.760;2023-05-07T08:35:17;21.76;38.79
67502;SHT30;54349;52.528;19.760;2023-05-07T08:37:46;21.77;38.79
67502;SHT30;54349;52.528;19.760;2023-05-07T08:40:16;21.79;38.79
67502;SHT30;54349;52.528;19.760;2023-05-07T08:42:45;21.79;38.78
67502;SHT30;54349;52.528;19.760;2023-05-07T08:45:19;21.78;38.79
67502;SHT30;54349;52.528;19.760;2023-05-07T08:48:14;21.79;38.73
67502;SHT30;54349;52.528;19.760;2023-05-07T08:50:50;21.80;38.78
67502;SHT30;54349;52.528;19.760;2023-05-07T08:53:20;21.81;38.79
67502;SHT30;54349;52.528;19.760;2023-05-07T08:55:51;21.82;38.80
67502;SHT30;54349;52.528;19.760;2023-05-07T08:58:21;21.83;38.79
67502;SHT30;54349;52.528;19.760;2023-05-07T09:00:50;21.84;38.78
67502;SHT30;54349;52.528;19.760;2023-05-07T09:03:22;21.84;38.77
67502;SHT30;54349;52.528;19.760;2023-05-07T09:05:52;21.85;38.71
67502;SHT30;54349;52.528;19.760;2023-05-07T09:08:24;21.85;38.69
67502;SHT30;54349;52.528;19.760;2023-05-07T09:10:56;21.86;38.70
67502;SHT30;54349;52.528;19.760;2023-05-07T09:13:27;21.86;38.70
67502;SHT30;54349;52.528;19.760;2023-05-07T09:15:57;21.86;38.69
67502;SHT30;54349;52.528;19.760;2023-05-07T09:18:25;21.88;38.84
67502;SHT30;54349;52.528;19.760;2023-05-07T09:20:55;21.88;39.05
67502;SHT30;54349;52.528;19.760;2023-05-07T09:23:24;21.90;39.01
67502;SHT30;54349;52.528;19.760;2023-05-07T09:25:53;21.91;38.96
67502;SHT30;54349;52.528;19.760;2023-05-07T09:28:30;21.93;38.92
67502;SHT30;54349;52.528;19.760;2023-05-07T09:31:01;21.93;38.89
67502;SHT30;54349;52.528;19.760;2023-05-07T09:33:29;21.95;38.87
67502;SHT30;54349;52.528;19.760;2023-05-07T09:35:58;21.96;38.84
67502;SHT30;54349;52.528;19.760;2023-05-07T09:38:32;21.98;38.81
67502;SHT30;54349;52.528;19.760;2023-05-07T09:41:08;21.98;38.80
67502;SHT30;54349;52.528;19.760;2023-05-07T09:43:48;21.98;38.80
67502;SHT30;54349;52.528;19.760;2023-05-07T09:46:25;21.99;38.77
67502;SHT30;54349;52.528;19.760;2023-05-07T09:49:00;22.00;38.77
67502;SHT30;54349;52.528;19.760;2023-05-07T09:51:34;22.01;38.72
67502;SHT30;54349;52.528;19.760;2023-05-07T09:54:13;22.03;38.70
67502;SHT30;54349;52.528;19.760;2023-05-07T09:56:43;22.04;38.65
67502;SHT30;54349;52.528;19.760;2023-05-07T09:59:13;22.06;38.63
67502;SHT30;54349;52.528;19.760;2023-05-07T10:01:44;22.07;38.60
67502;SHT30;54349;52.528;19.760;2023-05-07T10:04:13;22.07;38.54
67502;SHT30;54349;52.528;19.760;2023-05-07T10:06:43;22.08;38.56
67502;SHT30;54349;52.528;19.760;2023-05-07T10:09:13;22.09;38.56
67502;SHT30;54349;52.528;19.760;2023-05-07T10:11:43;22.10;38.48
67502;SHT30;54349;52.528;19.760;2023-05-07T10:14:12;22.10;38.46
67502;SHT30;54349;52.528;19.760;2023-05-07T10:16:42;22.11;38.41
67502;SHT30;54349;52.528;19.760;2023-05-07T10:19:15;22.12;38.44
67502;SHT30;54349;52.528;19.760;2023-05-07T10:21:59;22.13;38.48
67502;SHT30;54349;52.528;19.760;2023-05-07T10:24:36;22.14;38.43
67502;SHT30;54349;52.528;19.760;2023-05-07T10:27:10;22.15;38.38
67502;SHT30;54349;52.528;19.760;2023-05-07T10:29:57;22.16;38.31
67502;SHT30;54349;52.528;19.760;2023-05-07T10:32:56;22.17;38.20
67502;SHT30;54349;52.528;19.760;2023-05-07T10:35:40;22.16;38.23
67502;SHT30;54349;52.528;19.760;2023-05-07T10:38:12;22.19;38.21
67502;SHT30;54349;52.528;19.760;2023-05-07T10:40:43;22.20;38.19
67502;SHT30;54349;52.528;19.760;2023-05-07T10:43:15;22.22;38.15
67502;SHT30;54349;52.528;19.760;2023-05-07T10:46:09;22.25;38.11
67502;SHT30;54349;52.528;19.760;2023-05-07T10:51:38;22.32;38.09
67502;SHT30;54349;52.528;19.760;2023-05-07T10:56:49;22.32;38.13
67502;SHT30;54349;52.528;19.760;2023-05-07T11:02:05;22.31;38.20
67502;SHT30;54349;52.528;19.760;2023-05-07T11:05:05;22.33;38.18
67502;SHT30;54349;52.528;19.760;2023-05-07T11:08:01;22.36;38.21
67502;SHT30;54349;52.528;19.760;2023-05-07T11:13:49;22.38;38.26
67502;SHT30;54349;52.528;19.760;2023-05-07T11:16:50;22.38;38.17
67502;SHT30;54349;52.528;19.760;2023-05-07T11:19:48;22.38;38.13
67502;SHT30;54349;52.528;19.760;2023-05-07T11:25:19;22.38;38.16
67502;SHT30;54349;52.528;19.760;2023-05-07T11:27:52;22.38;38.21
67502;SHT30;54349;52.528;19.760;2023-05-07T11:30:21;22.39;38.18
67502;SHT30;54349;52.528;19.760;2023-05-07T11:32:50;22.40;38.05
67502;SHT30;54349;52.528;19.760;2023-05-07T11:35:19;22.45;37.95
67502;SHT30;54349;52.528;19.760;2023-05-07T11:37:57;22.47;38.11
67502;SHT30;54349;52.528;19.760;2023-05-07T11:40:28;22.49;38.47
67502;SHT30;54349;52.528;19.760;2023-05-07T11:42:56;22.51;38.80
67502;SHT30;54349;52.528;19.760;2023-05-07T11:45:24;22.53;39.23
67502;SHT30;54349;52.528;19.760;2023-05-07T11:47:53;22.55;39.52
67502;SHT30;54349;52.528;19.760;2023-05-07T11:50:22;22.56;39.64
67502;SHT30;54349;52.528;19.760;2023-05-07T11:52:50;22.59;39.74
67502;SHT30;54349;52.528;19.760;2023-05-07T11:55:20;22.60;40.06
67502;SHT30;54349;52.528;19.760;2023-05-07T11:57:49;22.64;40.48
67502;SHT30;54349;52.528;19.760;2023-05-07T12:00:18;22.66;41.12
67502;SHT30;54349;52.528;19.760;2023-05-07T12:02:47;22.68;41.51
67502;SHT30;54349;52.528;19.760;2023-05-07T12:05:15;22.72;41.55
67502;SHT30;54349;52.528;19.760;2023-05-07T12:07:44;22.78;41.48
67502;SHT30;54349;52.528;19.760;2023-05-07T12:10:12;22.82;41.62
67502;SHT30;54349;52.528;19.760;2023-05-07T12:12:41;22.85;41.80
67502;SHT30;54349;52.528;19.760;2023-05-07T12:15:16;22.88;41.86
67502;SHT30;54349;52.528;19.760;2023-05-07T12:17:45;22.90;41.70
67502;SHT30;54349;52.528;19.760;2023-05-07T12:20:16;22.93;41.87
67502;SHT30;54349;52.528;19.760;2023-05-07T12:22:47;23.00;41.91
67502;SHT30;54349;52.528;19.760;2023-05-07T12:25:20;23.06;41.84
67502;SHT30;54349;52.528;19.760;2023-05-07T12:27:52;23.09;42.01
67502;SHT30;54349;52.528;19.760;2023-05-07T12:30:23;23.10;42.11
67502;SHT30;54349;52.528;19.760;2023-05-07T12:32:54;23.10;42.13
67502;SHT30;54349;52.528;19.760;2023-05-07T12:35:31;23.11;42.17
67502;SHT30;54349;52.528;19.760;2023-05-07T12:38:12;23.16;42.22
67502;SHT30;54349;52.528;19.760;2023-05-07T12:40:44;23.20;42.24
67502;SHT30;54349;52.528;19.760;2023-05-07T12:45:49;23.29;42.16
67502;SHT30;54349;52.528;19.760;2023-05-07T12:48:19;23.32;42.14
67502;SHT30;54349;52.528;19.760;2023-05-07T12:50:49;23.33;42.17
67502;SHT30;54349;52.528;19.760;2023-05-07T12:53:20;23.33;42.12
67502;SHT30;54349;52.528;19.760;2023-05-07T12:55:53;23.32;42.29
67502;SHT30;54349;52.528;19.760;2023-05-07T12:58:27;23.34;42.56
67502;SHT30;54349;52.528;19.760;2023-05-07T13:01:05;23.37;42.84
67502;SHT30;54349;52.528;19.760;2023-05-07T13:03:37;23.39;42.93
67502;SHT30;54349;52.528;19.760;2023-05-07T13:06:07;23.41;42.99
67502;SHT30;54349;52.528;19.760;2023-05-07T13:08:39;23.42;43.02
67502;SHT30;54349;52.528;19.760;2023-05-07T13:11:11;23.42;43.03
67502;SHT30;54349;52.528;19.760;2023-05-07T13:13:41;23.42;43.00
67502;SHT30;54349;52.528;19.760;2023-05-07T13:16:10;23.42;42.95
67502;SHT30;54349;52.528;19.760;2023-05-07T13:18:40;23.42;42.88
67502;SHT30;54349;52.528;19.760;2023-05-07T13:21:11;23.44;42.84
67502;SHT30;54349;52.528;19.760;2023-05-07T13:23:41;23.45;42.78
67502;SHT30;54349;52.528;19.760;2023-05-07T13:26:09;23.47;42.69
67502;SHT30;54349;52.528;19.760;2023-05-07T13:28:55;23.50;42.67
67502;SHT30;54349;52.528;19.760;2023-05-07T13:31:24;23.52;42.59
67502;SHT30;54349;52.528;19.760;2023-05-07T13:33:52;23.54;42.48
67502;SHT30;54349;52.528;19.760;2023-05-07T13:36:21;23.57;42.40
67502;SHT30;54349;52.528;19.760;2023-05-07T13:38:50;23.59;42.35
67502;SHT30;54349;52.528;19.760;2023-05-07T13:41:19;23.59;42.30
67502;SHT30;54349;52.528;19.760;2023-05-07T13:43:48;23.59;42.21
67502;SHT30;54349;52.528;19.760;2023-05-07T13:46:16;23.60;42.14
67502;SHT30;54349;52.528;19.760;2023-05-07T13:48:45;23.63;42.04
67502;SHT30;54349;52.528;19.760;2023-05-07T13:51:13;23.63;41.96
67502;SHT30;54349;52.528;19.760;2023-05-07T13:53:41;23.64;41.88
67502;SHT30;54349;52.528;19.760;2023-05-07T13:56:09;23.66;41.76
67502;SHT30;54349;52.528;19.760;2023-05-07T13:58:38;23.68;41.68
67502;SHT30;54349;52.528;19.760;2023-05-07T14:01:25;23.68;41.61
67502;SHT30;54349;52.528;19.760;2023-05-07T14:03:55;23.69;41.55
67502;SHT30;54349;52.528;19.760;2023-05-07T14:06:25;23.73;41.51
67502;SHT30;54349;52.528;19.760;2023-05-07T14:08:53;23.74;41.44
67502;SHT30;54349;52.528;19.760;2023-05-07T14:11:22;23.77;41.38
67502;SHT30;54349;52.528;19.760;2023-05-07T14:13:50;23.79;41.35
67502;SHT30;54349;52.528;19.760;2023-05-07T14:16:18;23.80;41.31
67502;SHT30;54349;52.528;19.760;2023-05-07T14:18:46;23.80;41.30
67502;SHT30;54349;52.528;19.760;2023-05-07T14:21:17;23.78;41.30
67502;SHT30;54349;52.528;19.760;2023-05-07T14:23:45;23.81;41.30
67502;SHT30;54349;52.528;19.760;2023-05-07T14:26:14;23.84;41.28
67502;SHT30;54349;52.528;19.760;2023-05-07T14:28:42;23.85;41.22
67502;SHT30;54349;52.528;19.760;2023-05-07T14:31:14;23.87;41.25
67502;SHT30;54349;52.528;19.760;2023-05-07T14:33:42;23.89;41.21
67502;SHT30;54349;52.528;19.760;2023-05-07T14:36:10;23.92;41.21
67502;SHT30;54349;52.528;19.760;2023-05-07T14:38:38;23.91;41.30
67502;SHT30;54349;52.528;19.760;2023-05-07T14:41:06;23.90;41.34
67502;SHT30;54349;52.528;19.760;2023-05-07T14:43:35;23.89;41.40
67502;SHT30;54349;52.528;19.760;2023-05-07T14:46:03;23.88;41.49
67502;SHT30;54349;52.528;19.760;2023-05-07T14:48:31;23.89;41.54
67502;SHT30;54349;52.528;19.760;2023-05-07T14:50:59;23.89;41.62
67502;SHT30;54349;52.528;19.760;2023-05-07T14:53:27;23.88;41.73
67502;SHT30;54349;52.528;19.760;2023-05-07T14:55:55;23.89;41.81
67502;SHT30;54349;52.528;19.760;2023-05-07T14:58:23;23.92;41.87
67502;SHT30;54349;52.528;19.760;2023-05-07T15:00:52;23.94;41.89
67502;SHT30;54349;52.528;19.760;2023-05-07T15:03:20;23.97;41.94
67502;SHT30;54349;52.528;19.760;2023-05-07T15:05:50;23.99;41.97
67502;SHT30;54349;52.528;19.760;2023-05-07T15:08:19;24.00;41.99
67502;SHT30;54349;52.528;19.760;2023-05-07T15:10:47;24.01;41.98
67502;SHT30;54349;52.528;19.760;2023-05-07T15:13:16;24.02;42.06
67502;SHT30;54349;52.528;19.760;2023-05-07T15:15:44;24.01;42.07
67502;SHT30;54349;52.528;19.760;2023-05-07T15:18:13;24.01;42.08
67502;SHT30;54349;52.528;19.760;2023-05-07T15:20:42;24.02;42.09
67502;SHT30;54349;52.528;19.760;2023-05-07T15:23:11;24.04;42.08
67502;SHT30;54349;52.528;19.760;2023-05-07T15:25:43;24.05;42.02
67502;SHT30;54349;52.528;19.760;2023-05-07T15:28:13;24.06;42.01
67502;SHT30;54349;52.528;19.760;2023-05-07T15:30:40;24.07;41.99
67502;SHT30;54349;52.528;19.760;2023-05-07T15:33:09;24.08;41.96
67502;SHT30;54349;52.528;19.760;2023-05-07T15:35:37;24.09;41.91
67502;SHT30;54349;52.528;19.760;2023-05-07T15:38:06;24.10;41.89
67502;SHT30;54349;52.528;19.760;2023-05-07T15:40:36;24.11;41.88
67502;SHT30;54349;52.528;19.760;2023-05-07T15:43:09;24.12;41.84
67502;SHT30;54349;52.528;19.760;2023-05-07T15:45:39;24.13;41.80
67502;SHT30;54349;52.528;19.760;2023-05-07T15:48:09;24.13;41.80
67502;SHT30;54349;52.528;19.760;2023-05-07T15:50:38;24.12;41.78
67502;SHT30;54349;52.528;19.760;2023-05-07T15:53:06;24.12;41.80
67502;SHT30;54349;52.528;19.760;2023-05-07T15:55:35;24.11;41.82